sensor_id;sensor_type;location;lat;lon;timestamp;pressure;altitude;pressure_sealevel;temperature;humidity
63097;BME280;49185;42.320;23.198;2023-04-28T00:01:46;95138.72;;;2.33;73.29
63097;BME280;49185;42.320;23.198;2023-04-28T00:04:12;95127.72;;;2.22;73.92
63097;BME280;49185;42.320;23.198;2023-04-28T00:06:37;95121.03;;;2.41;72.90
63097;BME280;49185;42.320;23.198;2023-04-28T00:09:03;95118.84;;;2.23;73.49
63097;BME280;49185;42.320;23.198;2023-04-28T00:11:28;95122.63;;;2.85;71.01
63097;BME280;49185;42.320;23.198;2023-04-28T00:13:54;95129.41;;;2.30;73.21
63097;BME280;49185;42.320;23.198;2023-04-28T00:16:19;95133.63;;;1.88;75.24
63097;BME280;49185;42.320;23.198;2023-04-28T00:18:45;95127.66;;;1.79;76.65
63097;BME280;49185;42.320;23.198;2023-04-28T00:21:10;95122.66;;;2.42;74.53
63097;BME280;49185;42.320;23.198;2023-04-28T00:23:36;95134.19;;;2.05;74.68
63097;BME280;49185;42.320;23.198;2023-04-28T00:26:01;95127.03;;;3.07;70.63
63097;BME280;49185;42.320;23.198;2023-04-28T00:28:26;95130.84;;;2.54;72.11
63097;BME280;49185;42.320;23.198;2023-04-28T00:30:52;95136.22;;;2.24;74.19
63097;BME280;49185;42.320;23.198;2023-04-28T00:33:17;95135.81;;;1.55;76.42
63097;BME280;49185;42.320;23.198;2023-04-28T00:35:43;95126.53;;;1.37;77.38
63097;BME280;49185;42.320;23.198;2023-04-28T00:38:08;95133.66;;;1.95;74.64
63097;BME280;49185;42.320;23.198;2023-04-28T00:40:34;95133.16;;;2.42;71.80
63097;BME280;49185;42.320;23.198;2023-04-28T00:43:00;95142.28;;;1.88;74.22
63097;BME280;49185;42.320;23.198;2023-04-28T00:45:26;95142.78;;;1.32;76.66
63097;BME280;49185;42.320;23.198;2023-04-28T00:47:51;95146.75;;;1.13;78.54
63097;BME280;49185;42.320;23.198;2023-04-28T00:50:17;95147.13;;;1.10;79.78
63097;BME280;49185;42.320;23.198;2023-04-28T00:52:42;95149.22;;;1.96;75.57
63097;BME280;49185;42.320;23.198;2023-04-28T00:55:08;95145.03;;;1.50;76.90
63097;BME280;49185;42.320;23.198;2023-04-28T00:57:35;95150.06;;;1.97;74.07
63097;BME280;49185;42.320;23.198;2023-04-28T01:00:01;95149.91;;;1.54;75.49
63097;BME280;49185;42.320;23.198;2023-04-28T01:02:27;95158.56;;;1.09;77.61
63097;BME280;49185;42.320;23.198;2023-04-28T01:04:53;95151.72;;;1.08;77.66
63097;BME280;49185;42.320;23.198;2023-04-28T01:07:20;95158.13;;;1.06;77.70
63097;BME280;49185;42.320;23.198;2023-04-28T01:09:45;95158.09;;;0.91;78.83
63097;BME280;49185;42.320;23.198;2023-04-28T01:12:11;95155.81;;;0.73;80.24
63097;BME280;49185;42.320;23.198;2023-04-28T01:14:36;95157.41;;;0.74;80.88
63097;BME280;49185;42.320;23.198;2023-04-28T01:17:02;95156.88;;;1.46;77.61
63097;BME280;49185;42.320;23.198;2023-04-28T01:19:27;95158.28;;;0.89;80.01
63097;BME280;49185;42.320;23.198;2023-04-28T01:21:53;95158.44;;;0.88;80.47
63097;BME280;49185;42.320;23.198;2023-04-28T01:24:18;95159.19;;;1.86;76.50
63097;BME280;49185;42.320;23.198;2023-04-28T01:26:44;95161.50;;;1.44;78.04
63097;BME280;49185;42.320;23.198;2023-04-28T01:29:09;95168.91;;;0.73;80.98
63097;BME280;49185;42.320;23.198;2023-04-28T01:31:35;95162.63;;;0.36;83.03
63097;BME280;49185;42.320;23.198;2023-04-28T01:34:00;95158.81;;;0.85;81.34
63097;BME280;49185;42.320;23.198;2023-04-28T01:36:26;95164.50;;;0.50;82.62
63097;BME280;49185;42.320;23.198;2023-04-28T01:38:51;95162.84;;;0.49;82.72
63097;BME280;49185;42.320;23.198;2023-04-28T01:41:17;95160.13;;;1.19;80.02
63097;BME280;49185;42.320;23.198;2023-04-28T01:43:42;95154.25;;;1.76;75.43
63097;BME280;49185;42.320;23.198;2023-04-28T01:46:08;95156.16;;;1.23;77.03
63097;BME280;49185;42.320;23.198;2023-04-28T01:48:33;95161.78;;;0.82;80.01
63097;BME280;49185;42.320;23.198;2023-04-28T01:50:59;95158.31;;;1.19;79.04
63097;BME280;49185;42.320;23.198;2023-04-28T01:53:24;95167.72;;;0.75;79.91
63097;BME280;49185;42.320;23.198;2023-04-28T01:55:50;95153.59;;;0.62;81.51
63097;BME280;49185;42.320;23.198;2023-04-28T01:58:15;95155.53;;;1.21;78.11
63097;BME280;49185;42.320;23.198;2023-04-28T02:00:40;95155.13;;;1.83;74.36
63097;BME280;49185;42.320;23.198;2023-04-28T02:03:06;95156.88;;;1.46;75.73
63097;BME280;49185;42.320;23.198;2023-04-28T02:05:31;95155.00;;;1.40;76.90
63097;BME280;49185;42.320;23.198;2023-04-28T02:07:57;95164.44;;;0.97;78.55
63097;BME280;49185;42.320;23.198;2023-04-28T02:10:22;95159.78;;;0.46;81.06
63097;BME280;49185;42.320;23.198;2023-04-28T02:12:48;95163.78;;;0.33;82.56
63097;BME280;49185;42.320;23.198;2023-04-28T02:15:13;95166.38;;;0.10;83.87
63097;BME280;49185;42.320;23.198;2023-04-28T02:17:38;95172.16;;;0.06;84.48
63097;BME280;49185;42.320;23.198;2023-04-28T02:20:04;95175.88;;;0.11;84.33
63097;BME280;49185;42.320;23.198;2023-04-28T02:22:30;95186.72;;;0.00;85.10
63097;BME280;49185;42.320;23.198;2023-04-28T02:24:56;95181.31;;;0.02;85.36
63097;BME280;49185;42.320;23.198;2023-04-28T02:27:21;95181.25;;;0.41;83.26
63097;BME280;49185;42.320;23.198;2023-04-28T02:29:47;95187.13;;;0.12;84.57
63097;BME280;49185;42.320;23.198;2023-04-28T02:32:13;95194.44;;;-0.07;85.66
63097;BME280;49185;42.320;23.198;2023-04-28T02:34:38;95185.63;;;0.17;85.08
63097;BME280;49185;42.320;23.198;2023-04-28T02:37:04;95197.34;;;-0.02;85.35
63097;BME280;49185;42.320;23.198;2023-04-28T02:39:29;95198.28;;;-0.34;87.55
63097;BME280;49185;42.320;23.198;2023-04-28T02:41:55;95199.94;;;-0.33;87.89
63097;BME280;49185;42.320;23.198;2023-04-28T02:44:20;95201.53;;;-0.24;87.13
63097;BME280;49185;42.320;23.198;2023-04-28T02:46:46;95196.81;;;-0.28;87.24
63097;BME280;49185;42.320;23.198;2023-04-28T02:49:11;95200.69;;;0.15;86.40
63097;BME280;49185;42.320;23.198;2023-04-28T02:51:37;95195.19;;;0.56;82.70
63097;BME280;49185;42.320;23.198;2023-04-28T02:54:02;95197.00;;;0.02;85.06
63097;BME280;49185;42.320;23.198;2023-04-28T02:56:28;95202.53;;;0.07;84.96
63097;BME280;49185;42.320;23.198;2023-04-28T02:58:54;95207.53;;;-0.15;85.95
63097;BME280;49185;42.320;23.198;2023-04-28T03:01:19;95203.00;;;0.65;81.88
63097;BME280;49185;42.320;23.198;2023-04-28T03:03:44;95208.75;;;0.06;83.36
63097;BME280;49185;42.320;23.198;2023-04-28T03:06:10;95215.38;;;0.48;82.48
63097;BME280;49185;42.320;23.198;2023-04-28T03:08:35;95212.16;;;0.14;82.58
63097;BME280;49185;42.320;23.198;2023-04-28T03:11:01;95224.13;;;0.32;82.60
63097;BME280;49185;42.320;23.198;2023-04-28T03:13:26;95218.31;;;-0.18;84.59
63097;BME280;49185;42.320;23.198;2023-04-28T03:15:52;95224.03;;;-0.14;85.26
63097;BME280;49185;42.320;23.198;2023-04-28T03:18:17;95220.84;;;-0.33;85.93
63097;BME280;49185;42.320;23.198;2023-04-28T03:20:43;95224.91;;;-0.22;85.91
63097;BME280;49185;42.320;23.198;2023-04-28T03:23:08;95223.31;;;-0.40;86.51
63097;BME280;49185;42.320;23.198;2023-04-28T03:25:34;95230.88;;;-0.53;87.06
63097;BME280;49185;42.320;23.198;2023-04-28T03:27:59;95224.47;;;0.06;85.91
63097;BME280;49185;42.320;23.198;2023-04-28T03:30:25;95228.81;;;0.13;83.36
63097;BME280;49185;42.320;23.198;2023-04-28T03:32:50;95231.63;;;-0.36;85.10
63097;BME280;49185;42.320;23.198;2023-04-28T03:35:16;95231.47;;;-0.43;85.50
63097;BME280;49185;42.320;23.198;2023-04-28T03:37:41;95240.97;;;-0.33;85.71
63097;BME280;49185;42.320;23.198;2023-04-28T03:40:07;95236.91;;;-0.44;85.68
63097;BME280;49185;42.320;23.198;2023-04-28T03:42:32;95246.50;;;-0.36;85.79
63097;BME280;49185;42.320;23.198;2023-04-28T03:44:58;95254.19;;;-0.43;87.08
63097;BME280;49185;42.320;23.198;2023-04-28T03:47:23;95251.25;;;-0.40;87.73
63097;BME280;49185;42.320;23.198;2023-04-28T03:49:49;95256.31;;;-0.39;87.07
63097;BME280;49185;42.320;23.198;2023-04-28T03:52:14;95263.63;;;-0.26;86.85
63097;BME280;49185;42.320;23.198;2023-04-28T03:54:40;95257.56;;;-0.18;86.71
63097;BME280;49185;42.320;23.198;2023-04-28T03:57:05;95265.88;;;0.56;84.44
63097;BME280;49185;42.320;23.198;2023-04-28T03:59:31;95271.78;;;0.27;83.95
63097;BME280;49185;42.320;23.198;2023-04-28T04:01:56;95268.63;;;0.32;83.97
63097;BME280;49185;42.320;23.198;2023-04-28T04:04:22;95268.63;;;1.09;80.43
63097;BME280;49185;42.320;23.198;2023-04-28T04:06:48;95276.75;;;1.00;81.42
63097;BME280;49185;42.320;23.198;2023-04-28T04:09:13;95263.13;;;1.42;79.47
63097;BME280;49185;42.320;23.198;2023-04-28T04:11:39;95282.56;;;1.48;79.37
63097;BME280;49185;42.320;23.198;2023-04-28T04:14:04;95281.75;;;1.47;79.45
63097;BME280;49185;42.320;23.198;2023-04-28T04:16:29;95282.16;;;1.36;79.91
63097;BME280;49185;42.320;23.198;2023-04-28T04:18:55;95286.72;;;1.42;78.95
63097;BME280;49185;42.320;23.198;2023-04-28T04:21:20;95276.72;;;1.90;78.67
63097;BME280;49185;42.320;23.198;2023-04-28T04:23:46;95282.03;;;2.12;75.88
63097;BME280;49185;42.320;23.198;2023-04-28T04:26:11;95293.72;;;1.95;76.68
63097;BME280;49185;42.320;23.198;2023-04-28T04:28:37;95294.63;;;2.02;76.35
63097;BME280;49185;42.320;23.198;2023-04-28T04:31:02;95299.88;;;2.17;76.18
63097;BME280;49185;42.320;23.198;2023-04-28T04:33:28;95289.13;;;3.21;71.49
63097;BME280;49185;42.320;23.198;2023-04-28T04:35:53;95286.72;;;3.48;71.01
63097;BME280;49185;42.320;23.198;2023-04-28T04:38:18;95289.28;;;3.41;69.81
63097;BME280;49185;42.320;23.198;2023-04-28T04:40:44;95297.13;;;3.63;69.90
63097;BME280;49185;42.320;23.198;2023-04-28T04:43:09;95293.69;;;3.62;70.39
63097;BME280;49185;42.320;23.198;2023-04-28T04:45:35;95298.88;;;4.12;68.53
63097;BME280;49185;42.320;23.198;2023-04-28T04:48:01;95287.19;;;4.21;68.80
63097;BME280;49185;42.320;23.198;2023-04-28T04:50:26;95287.91;;;5.18;66.78
63097;BME280;49185;42.320;23.198;2023-04-28T04:52:52;95284.13;;;7.87;57.12
63097;BME280;49185;42.320;23.198;2023-04-28T04:55:17;95280.94;;;10.27;51.54
63097;BME280;49185;42.320;23.198;2023-04-28T04:57:43;95276.59;;;11.14;45.73
63097;BME280;49185;42.320;23.198;2023-04-28T05:00:09;95280.41;;;10.77;46.00
63097;BME280;49185;42.320;23.198;2023-04-28T05:02:34;95285.25;;;13.23;42.32
63097;BME280;49185;42.320;23.198;2023-04-28T05:05:00;95288.41;;;12.98;41.77
63097;BME280;49185;42.320;23.198;2023-04-28T05:07:25;95285.31;;;13.55;40.04
63097;BME280;49185;42.320;23.198;2023-04-28T05:09:51;95284.16;;;12.35;40.94
63097;BME280;49185;42.320;23.198;2023-04-28T05:12:16;95280.91;;;11.49;45.14
63097;BME280;49185;42.320;23.198;2023-04-28T05:14:41;95280.69;;;15.06;37.28
63097;BME280;49185;42.320;23.198;2023-04-28T05:17:07;95268.63;;;15.13;34.85
63097;BME280;49185;42.320;23.198;2023-04-28T05:19:32;95279.00;;;13.66;38.32
63097;BME280;49185;42.320;23.198;2023-04-28T05:21:58;95272.75;;;13.28;39.21
63097;BME280;49185;42.320;23.198;2023-04-28T05:24:23;95268.00;;;18.01;30.33
63097;BME280;49185;42.320;23.198;2023-04-28T05:26:50;95274.03;;;17.38;29.58
63097;BME280;49185;42.320;23.198;2023-04-28T05:29:15;95267.56;;;18.47;29.16
63097;BME280;49185;42.320;23.198;2023-04-28T05:31:40;95275.06;;;19.04;28.16
63097;BME280;49185;42.320;23.198;2023-04-28T05:34:06;95275.75;;;15.97;34.37
63097;BME280;49185;42.320;23.198;2023-04-28T05:36:31;95271.69;;;15.63;34.00
63097;BME280;49185;42.320;23.198;2023-04-28T05:38:57;95271.59;;;16.86;31.06
63097;BME280;49185;42.320;23.198;2023-04-28T05:41:25;95273.06;;;17.63;32.08
63097;BME280;49185;42.320;23.198;2023-04-28T05:43:51;95280.13;;;13.71;39.89
63097;BME280;49185;42.320;23.198;2023-04-28T05:46:16;95287.75;;;12.63;41.14
63097;BME280;49185;42.320;23.198;2023-04-28T05:48:42;95282.25;;;12.14;42.88
63097;BME280;49185;42.320;23.198;2023-04-28T05:51:07;95278.31;;;12.00;38.32
63097;BME280;49185;42.320;23.198;2023-04-28T05:53:33;95285.22;;;10.92;41.03
63097;BME280;49185;42.320;23.198;2023-04-28T05:55:59;95280.00;;;15.56;34.04
63097;BME280;49185;42.320;23.198;2023-04-28T05:58:24;95279.25;;;16.23;32.58
63097;BME280;49185;42.320;23.198;2023-04-28T06:00:49;95266.00;;;19.38;26.97
63097;BME280;49185;42.320;23.198;2023-04-28T06:03:15;95261.81;;;18.83;28.18
63097;BME280;49185;42.320;23.198;2023-04-28T06:05:40;95279.78;;;18.05;29.87
63097;BME280;49185;42.320;23.198;2023-04-28T06:08:06;95280.03;;;16.39;32.52
63097;BME280;49185;42.320;23.198;2023-04-28T06:10:31;95273.66;;;17.99;27.71
63097;BME280;49185;42.320;23.198;2023-04-28T06:12:57;95264.69;;;17.70;28.39
63097;BME280;49185;42.320;23.198;2023-04-28T06:15:22;95272.31;;;17.07;28.07
63097;BME280;49185;42.320;23.198;2023-04-28T06:17:48;95271.59;;;16.86;27.98
63097;BME280;49185;42.320;23.198;2023-04-28T06:20:16;95272.50;;;16.46;29.59
63097;BME280;49185;42.320;23.198;2023-04-28T06:22:41;95265.03;;;18.02;29.01
63097;BME280;49185;42.320;23.198;2023-04-28T06:25:07;95264.91;;;18.42;28.34
63097;BME280;49185;42.320;23.198;2023-04-28T06:27:33;95263.81;;;19.59;25.17
63097;BME280;49185;42.320;23.198;2023-04-28T06:29:58;95260.94;;;16.50;31.03
63097;BME280;49185;42.320;23.198;2023-04-28T06:32:23;95267.72;;;17.58;29.83
63097;BME280;49185;42.320;23.198;2023-04-28T06:34:49;95266.88;;;18.36;28.69
63097;BME280;49185;42.320;23.198;2023-04-28T06:37:14;95263.41;;;20.36;25.60
63097;BME280;49185;42.320;23.198;2023-04-28T06:39:40;95255.72;;;20.10;24.86
63097;BME280;49185;42.320;23.198;2023-04-28T06:42:05;95250.31;;;19.78;23.47
63097;BME280;49185;42.320;23.198;2023-04-28T06:44:31;95252.28;;;19.53;22.68
63097;BME280;49185;42.320;23.198;2023-04-28T06:46:56;95264.09;;;19.38;25.02
63097;BME280;49185;42.320;23.198;2023-04-28T06:49:21;95257.09;;;19.75;24.73
63097;BME280;49185;42.320;23.198;2023-04-28T06:51:47;95263.91;;;16.44;26.86
63097;BME280;49185;42.320;23.198;2023-04-28T06:54:12;95259.31;;;19.30;25.83
63097;BME280;49185;42.320;23.198;2023-04-28T06:56:38;95251.53;;;19.66;23.82
63097;BME280;49185;42.320;23.198;2023-04-28T06:59:03;95259.91;;;18.59;25.07
63097;BME280;49185;42.320;23.198;2023-04-28T07:01:29;95268.25;;;16.04;31.00
63097;BME280;49185;42.320;23.198;2023-04-28T07:03:54;95255.91;;;19.05;26.47
63097;BME280;49185;42.320;23.198;2023-04-28T07:06:19;95257.91;;;16.67;28.62
63097;BME280;49185;42.320;23.198;2023-04-28T07:08:45;95256.44;;;17.11;28.67
63097;BME280;49185;42.320;23.198;2023-04-28T07:11:10;95248.28;;;18.88;26.16
63097;BME280;49185;42.320;23.198;2023-04-28T07:13:36;95245.66;;;17.16;29.41
63097;BME280;49185;42.320;23.198;2023-04-28T07:16:03;95253.13;;;16.54;32.16
63097;BME280;49185;42.320;23.198;2023-04-28T07:18:29;95236.31;;;18.70;29.14
63097;BME280;49185;42.320;23.198;2023-04-28T07:20:54;95249.31;;;16.65;30.46
63097;BME280;49185;42.320;23.198;2023-04-28T07:23:20;95234.84;;;18.83;26.35
63097;BME280;49185;42.320;23.198;2023-04-28T07:25:45;95241.03;;;16.57;29.49
63097;BME280;49185;42.320;23.198;2023-04-28T07:28:12;95235.69;;;17.17;29.47
63097;BME280;49185;42.320;23.198;2023-04-28T07:30:37;95233.38;;;18.18;29.71
63097;BME280;49185;42.320;23.198;2023-04-28T07:33:03;95240.09;;;18.45;27.15
63097;BME280;49185;42.320;23.198;2023-04-28T07:35:28;95247.41;;;17.76;27.60
63097;BME280;49185;42.320;23.198;2023-04-28T07:37:54;95242.47;;;18.23;25.96
63097;BME280;49185;42.320;23.198;2023-04-28T07:40:20;95237.63;;;16.20;30.88
63097;BME280;49185;42.320;23.198;2023-04-28T07:42:45;95252.41;;;16.18;29.95
63097;BME280;49185;42.320;23.198;2023-04-28T07:45:11;95252.81;;;16.66;28.84
63097;BME280;49185;42.320;23.198;2023-04-28T07:47:37;95240.81;;;17.18;29.22
63097;BME280;49185;42.320;23.198;2023-04-28T07:50:03;95247.66;;;17.79;29.21
63097;BME280;49185;42.320;23.198;2023-04-28T07:52:29;95244.19;;;18.13;27.80
63097;BME280;49185;42.320;23.198;2023-04-28T07:54:54;95239.06;;;16.93;30.33
63097;BME280;49185;42.320;23.198;2023-04-28T07:57:20;95248.28;;;16.61;28.88
63097;BME280;49185;42.320;23.198;2023-04-28T07:59:45;95237.28;;;15.19;31.27
63097;BME280;49185;42.320;23.198;2023-04-28T08:02:11;95244.03;;;16.40;32.02
63097;BME280;49185;42.320;23.198;2023-04-28T08:04:36;95239.34;;;16.76;31.28
63097;BME280;49185;42.320;23.198;2023-04-28T08:07:01;95238.31;;;17.72;27.97
63097;BME280;49185;42.320;23.198;2023-04-28T08:09:27;95234.41;;;18.23;28.02
63097;BME280;49185;42.320;23.198;2023-04-28T08:11:52;95230.22;;;18.35;28.09
63097;BME280;49185;42.320;23.198;2023-04-28T08:14:19;95231.81;;;16.88;30.39
63097;BME280;49185;42.320;23.198;2023-04-28T08:16:44;95229.66;;;18.38;28.11
63097;BME280;49185;42.320;23.198;2023-04-28T08:19:10;95238.53;;;17.75;27.90
63097;BME280;49185;42.320;23.198;2023-04-28T08:21:35;95232.44;;;17.64;27.82
63097;BME280;49185;42.320;23.198;2023-04-28T08:24:01;95241.19;;;17.46;28.59
63097;BME280;49185;42.320;23.198;2023-04-28T08:26:26;95243.44;;;16.58;29.73
63097;BME280;49185;42.320;23.198;2023-04-28T08:28:53;95233.09;;;17.51;30.91
63097;BME280;49185;42.320;23.198;2023-04-28T08:31:18;95231.28;;;18.64;25.70
63097;BME280;49185;42.320;23.198;2023-04-28T08:33:44;95228.81;;;16.95;29.38
63097;BME280;49185;42.320;23.198;2023-04-28T08:36:10;95226.09;;;17.05;28.99
63097;BME280;49185;42.320;23.198;2023-04-28T08:38:35;95230.50;;;17.70;30.90
63097;BME280;49185;42.320;23.198;2023-04-28T08:41:03;95223.81;;;19.04;25.71
63097;BME280;49185;42.320;23.198;2023-04-28T08:43:28;95228.03;;;17.39;26.25
63097;BME280;49185;42.320;23.198;2023-04-28T08:45:56;95223.00;;;16.67;28.04
63097;BME280;49185;42.320;23.198;2023-04-28T08:48:23;95221.66;;;16.65;27.98
63097;BME280;49185;42.320;23.198;2023-04-28T08:50:51;95218.59;;;16.17;28.70
63097;BME280;49185;42.320;23.198;2023-04-28T08:53:23;95221.75;;;16.39;28.83
63097;BME280;49185;42.320;23.198;2023-04-28T08:55:51;95212.59;;;17.16;28.96
63097;BME280;49185;42.320;23.198;2023-04-28T08:58:18;95221.91;;;17.34;29.51
63097;BME280;49185;42.320;23.198;2023-04-28T09:00:44;95222.13;;;15.81;29.51
63097;BME280;49185;42.320;23.198;2023-04-28T09:03:09;95219.41;;;16.07;28.83
63097;BME280;49185;42.320;23.198;2023-04-28T09:05:35;95216.59;;;17.58;25.41
63097;BME280;49185;42.320;23.198;2023-04-28T09:08:01;95213.88;;;17.63;28.75
63097;BME280;49185;42.320;23.198;2023-04-28T09:10:26;95218.94;;;16.80;29.53
63097;BME280;49185;42.320;23.198;2023-04-28T09:12:53;95209.50;;;15.87;28.88
63097;BME280;49185;42.320;23.198;2023-04-28T09:17:51;95200.66;;;15.76;29.85
63097;BME280;49185;42.320;23.198;2023-04-28T09:20:24;95196.91;;;17.28;31.03
63097;BME280;49185;42.320;23.198;2023-04-28T09:22:51;95197.78;;;18.21;28.59
63097;BME280;49185;42.320;23.198;2023-04-28T09:25:18;95194.41;;;17.76;27.41
63097;BME280;49185;42.320;23.198;2023-04-28T09:27:44;95192.84;;;16.91;30.75
63097;BME280;49185;42.320;23.198;2023-04-28T09:30:10;95189.03;;;16.97;29.78
63097;BME280;49185;42.320;23.198;2023-04-28T09:32:35;95190.28;;;17.84;29.69
63097;BME280;49185;42.320;23.198;2023-04-28T09:35:01;95190.03;;;17.06;27.81
63097;BME280;49185;42.320;23.198;2023-04-28T09:37:27;95195.13;;;17.13;29.91
63097;BME280;49185;42.320;23.198;2023-04-28T09:39:53;95186.03;;;17.04;30.68
63097;BME280;49185;42.320;23.198;2023-04-28T09:42:31;95185.06;;;16.79;30.53
63097;BME280;49185;42.320;23.198;2023-04-28T09:44:57;95174.63;;;17.62;28.76
63097;BME280;49185;42.320;23.198;2023-04-28T09:47:22;95167.25;;;18.31;28.21
63097;BME280;49185;42.320;23.198;2023-04-28T09:49:57;95168.38;;;16.12;29.47
63097;BME280;49185;42.320;23.198;2023-04-28T09:52:23;95169.59;;;17.50;28.91
63097;BME280;49185;42.320;23.198;2023-04-28T09:54:50;95168.69;;;16.00;29.76
63097;BME280;49185;42.320;23.198;2023-04-28T09:57:17;95161.97;;;16.13;29.10
63097;BME280;49185;42.320;23.198;2023-04-28T09:59:46;95160.84;;;16.19;30.43
63097;BME280;49185;42.320;23.198;2023-04-28T10:02:14;95158.47;;;16.78;30.49
63097;BME280;49185;42.320;23.198;2023-04-28T10:04:41;95151.13;;;18.02;27.34
63097;BME280;49185;42.320;23.198;2023-04-28T10:07:07;95144.66;;;18.03;26.94
63097;BME280;49185;42.320;23.198;2023-04-28T10:09:32;95151.06;;;17.43;31.21
63097;BME280;49185;42.320;23.198;2023-04-28T10:11:58;95141.72;;;18.48;30.47
63097;BME280;49185;42.320;23.198;2023-04-28T10:14:24;95139.94;;;17.84;29.43
63097;BME280;49185;42.320;23.198;2023-04-28T10:16:49;95147.63;;;18.01;28.42
63097;BME280;49185;42.320;23.198;2023-04-28T10:19:16;95141.59;;;17.86;26.70
63097;BME280;49185;42.320;23.198;2023-04-28T10:21:47;95148.25;;;16.80;29.17
63097;BME280;49185;42.320;23.198;2023-04-28T10:24:25;95143.78;;;17.10;30.76
63097;BME280;49185;42.320;23.198;2023-04-28T10:27:06;95133.00;;;18.08;29.28
63097;BME280;49185;42.320;23.198;2023-04-28T10:29:32;95128.06;;;18.15;27.93
63097;BME280;49185;42.320;23.198;2023-04-28T10:32:17;95127.09;;;17.13;30.44
63097;BME280;49185;42.320;23.198;2023-04-28T10:34:43;95116.56;;;18.09;29.41
63097;BME280;49185;42.320;23.198;2023-04-28T10:37:09;95109.22;;;18.39;29.47
63097;BME280;49185;42.320;23.198;2023-04-28T10:39:34;95110.28;;;19.71;26.82
63097;BME280;49185;42.320;23.198;2023-04-28T10:42:00;95097.44;;;20.09;26.59
63097;BME280;49185;42.320;23.198;2023-04-28T10:47:01;95105.41;;;18.21;27.48
63097;BME280;49185;42.320;23.198;2023-04-28T11:00:39;95090.22;;;19.44;25.74
63097;BME280;49185;42.320;23.198;2023-04-28T11:03:05;95097.09;;;18.42;25.72
63097;BME280;49185;42.320;23.198;2023-04-28T11:05:31;95093.69;;;18.74;25.84
63097;BME280;49185;42.320;23.198;2023-04-28T11:11:18;95085.78;;;19.02;26.62
63097;BME280;49185;42.320;23.198;2023-04-28T11:13:43;95081.84;;;20.06;23.21
63097;BME280;49185;42.320;23.198;2023-04-28T11:16:09;95076.50;;;19.73;24.32
63097;BME280;49185;42.320;23.198;2023-04-28T11:18:48;95079.22;;;19.87;24.64
63097;BME280;49185;42.320;23.198;2023-04-28T11:21:14;95076.19;;;19.42;25.39
63097;BME280;49185;42.320;23.198;2023-04-28T11:23:39;95069.56;;;18.64;25.63
63097;BME280;49185;42.320;23.198;2023-04-28T11:26:05;95062.13;;;19.92;22.70
63097;BME280;49185;42.320;23.198;2023-04-28T11:28:30;95073.22;;;20.18;26.44
63097;BME280;49185;42.320;23.198;2023-04-28T11:31:12;95062.13;;;18.55;24.61
63097;BME280;49185;42.320;23.198;2023-04-28T11:33:38;95055.69;;;19.60;23.00
63097;BME280;49185;42.320;23.198;2023-04-28T11:36:04;95052.81;;;21.13;24.12
63097;BME280;49185;42.320;23.198;2023-04-28T11:38:42;95050.66;;;21.01;21.44
63097;BME280;49185;42.320;23.198;2023-04-28T11:41:07;95042.13;;;21.30;23.03
63097;BME280;49185;42.320;23.198;2023-04-28T11:43:33;95045.75;;;21.03;23.34
63097;BME280;49185;42.320;23.198;2023-04-28T11:45:59;95041.25;;;21.21;21.48
63097;BME280;49185;42.320;23.198;2023-04-28T11:48:25;95038.78;;;22.36;19.90
63097;BME280;49185;42.320;23.198;2023-04-28T11:50:50;95038.22;;;21.68;20.09
63097;BME280;49185;42.320;23.198;2023-04-28T11:53:16;95040.50;;;20.20;21.99
63097;BME280;49185;42.320;23.198;2023-04-28T11:55:41;95031.44;;;20.66;21.30
63097;BME280;49185;42.320;23.198;2023-04-28T11:58:17;95020.34;;;22.07;21.80
63097;BME280;49185;42.320;23.198;2023-04-28T12:00:42;95028.34;;;22.12;19.98
63097;BME280;49185;42.320;23.198;2023-04-28T12:03:08;95024.16;;;20.89;19.08
63097;BME280;49185;42.320;23.198;2023-04-28T12:05:34;95024.19;;;20.25;19.52
63097;BME280;49185;42.320;23.198;2023-04-28T12:07:59;95021.19;;;20.40;18.87
63097;BME280;49185;42.320;23.198;2023-04-28T12:10:24;95013.19;;;20.21;20.49
63097;BME280;49185;42.320;23.198;2023-04-28T12:12:50;95015.72;;;20.68;19.22
63097;BME280;49185;42.320;23.198;2023-04-28T12:15:15;95002.94;;;19.35;18.98
63097;BME280;49185;42.320;23.198;2023-04-28T12:17:41;94998.03;;;17.42;23.32
63097;BME280;49185;42.320;23.198;2023-04-28T12:20:09;94998.69;;;18.06;24.76
63097;BME280;49185;42.320;23.198;2023-04-28T12:22:46;94996.41;;;17.46;23.05
63097;BME280;49185;42.320;23.198;2023-04-28T12:25:13;95004.22;;;16.79;26.33
63097;BME280;49185;42.320;23.198;2023-04-28T12:27:39;95002.56;;;16.83;24.54
63097;BME280;49185;42.320;23.198;2023-04-28T12:32:46;94999.59;;;16.50;25.23
63097;BME280;49185;42.320;23.198;2023-04-28T12:35:11;94987.53;;;16.47;25.29
63097;BME280;49185;42.320;23.198;2023-04-28T12:37:37;94982.84;;;16.98;23.93
63097;BME280;49185;42.320;23.198;2023-04-28T12:40:03;94982.50;;;17.10;26.08
63097;BME280;49185;42.320;23.198;2023-04-28T12:42:28;94981.34;;;17.69;26.22
63097;BME280;49185;42.320;23.198;2023-04-28T12:44:53;94979.31;;;17.56;24.08
63097;BME280;49185;42.320;23.198;2023-04-28T12:47:19;94969.09;;;17.04;23.32
63097;BME280;49185;42.320;23.198;2023-04-28T12:49:44;94967.34;;;16.89;26.90
63097;BME280;49185;42.320;23.198;2023-04-28T12:52:10;94966.56;;;17.42;26.16
63097;BME280;49185;42.320;23.198;2023-04-28T12:54:35;94961.59;;;17.31;26.13
63097;BME280;49185;42.320;23.198;2023-04-28T12:57:02;94968.44;;;16.49;24.62
63097;BME280;49185;42.320;23.198;2023-04-28T12:59:29;94957.22;;;16.42;25.56
63097;BME280;49185;42.320;23.198;2023-04-28T13:01:54;94959.59;;;16.48;25.81
63097;BME280;49185;42.320;23.198;2023-04-28T13:04:20;94956.56;;;16.21;25.80
63097;BME280;49185;42.320;23.198;2023-04-28T13:06:46;94964.03;;;16.29;26.63
63097;BME280;49185;42.320;23.198;2023-04-28T13:09:12;94951.94;;;16.26;27.06